Doddsville, Mississippi
Current Conditions -  °F | °C
As of 5:35 AM on Saturday 22 Nov 2014 (Local Time) from KRNV Reporting Station
Light Rain Light Rain  
Wind Chill: 54°   Ceiling: 9000
Heat Index: 54°   Visibility: 10mi
Dew Point: 49°   Wind: 8mph
Humidity: 82%   Direction: 150°SSE
Pressure: 30.25"   Gusts: NA
Location:  33.66°N, 90.52°W
Report Text: KRNV 221135Z AUTO 15007KT 10SM -RA OVC090 12/09 A3025 RMK AO2 LTG DSNT W AND NW T01220092
Loading
Personal Weather Stations






























Interactive Weather Map New forecast layout! Learn more

10-Day Weather Forecast

Advertisements
Track Severe Weather on mobile